Terminal Aerodrome Forecast
Issued by NWS

Current Version | Previous Version | Graphics & Text | Print | Product List | Glossary On
Versions: 1 2 3 4 5 6 7 8 9 10 11 12 13 14 15 16 17 18 19 20 21 22 23
000
FTUS41 KRLX 240500 RRA
TAFCKB
TAF
KCKB 240557Z 2406/2506 VRB03KT 1SM -SN BR OVC003
      TEMPO 2407/2410 1/2SM SN OVC003
     FM241200 30004KT 4SM -SN OVC008
     FM241400 30005KT P6SM OVC015
     FM241800 25008G15KT P6SM BKN025=

USA.gov is the U.S. government's official web portal to all federal, state and local government web resources and services.